Time;durP1;ratioP1;P1;durP2;ratioP2;P2;SDS_P1;SDS_P2;PMS_P1;PMS_P2;Temp;Humidity;BMP_temperature;BMP_pressure;BME280_temperature;BME280_humidity;BME280_pressure;Samples;Min_cycle;Max_cycle;Signal;HPM_P1;HPM_P2
2022/06/18 00:01:33;;;;;;;;;;;20.30;99.90;;;;;;5006988;28;19980;-74
2022/06/18 00:04:03;;;;;;;;;;;20.30;99.90;;;;;;5021992;28;20067;-74
2022/06/18 00:06:30;;;;;;;;;;;20.40;99.90;;;;;;5021746;28;20511;-74
2022/06/18 00:08:56;;;;;;;;;;;20.30;99.90;;;;;;5008192;28;19933;-74
2022/06/18 00:14:06;;;;;;;;;;;20.40;99.90;;;;;;5023557;28;19982;-74
2022/06/18 00:16:32;;;;;;;;;;;20.30;99.90;;;;;;4998019;28;20332;-74
2022/06/18 00:18:58;;;;;;;;;;;20.30;99.90;;;;;;5010737;28;20364;-74
2022/06/18 00:21:24;;;;;;;;;;;20.40;99.90;;;;;;5025947;28;19935;-74
2022/06/18 00:23:50;;;;;;;;;;;20.30;99.90;;;;;;5022905;28;19936;-74
2022/06/18 00:26:16;;;;;;;;;;;20.30;99.90;;;;;;5025280;28;19929;-74
2022/06/18 00:28:42;;;;;;;;;;;20.20;99.90;;;;;;5010616;28;19928;-74
2022/06/18 00:31:08;;;;;;;;;;;20.10;99.90;;;;;;5027634;28;19940;-73
2022/06/18 00:33:39;;;;;;;;;;;20.10;99.90;;;;;;5026499;28;21118;-74
2022/06/18 00:36:05;;;;;;;;;;;20.00;99.90;;;;;;5006984;28;19968;-74
2022/06/18 00:38:32;;;;;;;;;;;20.10;99.90;;;;;;5023817;28;20386;-74
2022/06/18 00:40:59;;;;;;;;;;;20.10;99.90;;;;;;5022483;28;21337;-74
2022/06/18 00:43:32;;;;;;;;;;;20.10;99.90;;;;;;5023510;28;20401;-73
2022/06/18 00:46:05;;;;;;;;;;;20.10;99.90;;;;;;5021370;28;20413;-74
2022/06/18 00:48:39;;;;;;;;;;;20.10;99.90;;;;;;5022316;28;19991;-74
2022/06/18 00:51:10;;;;;;;;;;;20.10;99.90;;;;;;5006800;28;19929;-73
2022/06/18 00:53:42;;;;;;;;;;;20.00;99.90;;;;;;5026221;28;19959;-73
2022/06/18 00:56:25;;;;;;;;;;;20.00;99.90;;;;;;5026585;28;19933;-74
2022/06/18 00:59:13;;;;;;;;;;;20.00;99.90;;;;;;5009030;28;20939;-74
2022/06/18 01:01:40;;;;;;;;;;;20.00;99.90;;;;;;4981874;28;20028;-74
2022/06/18 01:04:24;;;;;;;;;;;19.90;99.90;;;;;;5029188;28;19924;-74
2022/06/18 01:06:52;;;;;;;;;;;19.90;99.90;;;;;;5009568;28;19935;-73
2022/06/18 01:09:18;;;;;;;;;;;19.80;99.90;;;;;;5009545;28;19933;-74
2022/06/18 01:11:45;;;;;;;;;;;19.80;99.90;;;;;;5011013;28;19978;-74
2022/06/18 01:14:12;;;;;;;;;;;19.80;99.90;;;;;;5026576;28;20251;-74
2022/06/18 01:16:38;;;;;;;;;;;19.80;99.90;;;;;;5012270;28;19940;-74
2022/06/18 01:19:07;;;;;;;;;;;19.80;99.90;;;;;;5027219;28;19929;-74
2022/06/18 01:21:36;;;;;;;;;;;19.80;99.90;;;;;;5004935;28;19933;-74
2022/06/18 01:24:08;;;;;;;;;;;19.80;99.90;;;;;;5026000;28;20309;-74
2022/06/18 01:26:34;;;;;;;;;;;19.80;99.90;;;;;;5024624;28;20307;-74
2022/06/18 01:28:59;;;;;;;;;;;19.70;99.90;;;;;;5028228;28;19945;-74
2022/06/18 01:31:25;;;;;;;;;;;19.60;99.90;;;;;;5027549;28;19982;-74
2022/06/18 01:33:51;;;;;;;;;;;19.60;99.90;;;;;;5010381;28;20035;-74
2022/06/18 01:36:17;;;;;;;;;;;19.60;99.90;;;;;;5025189;28;20315;-74
2022/06/18 01:38:44;;;;;;;;;;;19.60;99.90;;;;;;5027718;28;19982;-74
2022/06/18 01:44:24;;;;;;;;;;;19.50;99.90;;;;;;5011357;28;19929;-74
2022/06/18 01:46:51;;;;;;;;;;;19.40;99.90;;;;;;4994205;28;20625;-74
2022/06/18 01:49:20;;;;;;;;;;;19.40;99.90;;;;;;5017925;28;19929;-74
2022/06/18 01:51:47;;;;;;;;;;;19.30;99.90;;;;;;4993409;28;19933;-74
2022/06/18 01:54:24;;;;;;;;;;;19.40;99.90;;;;;;5014406;28;20458;-74
2022/06/18 01:56:52;;;;;;;;;;;19.40;99.90;;;;;;4995640;28;19928;-74
2022/06/18 01:59:30;;;;;;;;;;;19.40;99.90;;;;;;4996645;28;20374;-73
2022/06/18 02:01:56;;;;;;;;;;;19.40;99.90;;;;;;5013059;28;19981;-74
2022/06/18 02:04:22;;;;;;;;;;;19.30;99.90;;;;;;5013211;28;19943;-74
2022/06/18 02:06:49;;;;;;;;;;;19.30;99.90;;;;;;5016651;28;19940;-74
2022/06/18 02:09:33;;;;;;;;;;;19.20;99.90;;;;;;5012810;28;19929;-74
2022/06/18 02:12:00;;;;;;;;;;;19.20;99.90;;;;;;5013928;28;20369;-74
2022/06/18 02:14:26;;;;;;;;;;;19.10;99.90;;;;;;4995778;28;19932;-74
2022/06/18 02:16:53;;;;;;;;;;;19.10;99.90;;;;;;5014936;28;19932;-74
2022/06/18 02:19:20;;;;;;;;;;;19.10;99.90;;;;;;5011618;28;19928;-74
2022/06/18 02:21:48;;;;;;;;;;;19.10;99.90;;;;;;5014284;28;19954;-74
2022/06/18 02:24:14;;;;;;;;;;;19.20;99.90;;;;;;5010565;28;19931;-75
2022/06/18 02:26:41;;;;;;;;;;;19.20;99.90;;;;;;5011646;28;19976;-74
2022/06/18 02:29:16;;;;;;;;;;;19.30;99.90;;;;;;4996042;28;20401;-75
2022/06/18 02:31:45;;;;;;;;;;;19.30;99.90;;;;;;5014884;28;19932;-74
2022/06/18 02:34:13;;;;;;;;;;;19.30;99.90;;;;;;4998323;28;20023;-74
2022/06/18 02:36:42;;;;;;;;;;;19.40;99.90;;;;;;5010662;28;19943;-75
2022/06/18 02:39:08;;;;;;;;;;;19.40;99.90;;;;;;5012102;28;19967;-75
2022/06/18 02:41:40;;;;;;;;;;;19.40;99.90;;;;;;4998038;28;20666;-74
2022/06/18 02:44:06;;;;;;;;;;;19.40;99.90;;;;;;5011696;28;19928;-75
2022/06/18 02:46:32;;;;;;;;;;;19.40;99.90;;;;;;4996768;28;19929;-74
2022/06/18 02:49:00;;;;;;;;;;;19.50;99.90;;;;;;5013662;28;19933;-74
2022/06/18 02:51:26;;;;;;;;;;;19.40;99.90;;;;;;5013856;28;19936;-74
2022/06/18 02:53:52;;;;;;;;;;;19.50;99.90;;;;;;5008645;28;19928;-74
2022/06/18 02:56:17;;;;;;;;;;;19.40;99.90;;;;;;5010699;28;19932;-74
2022/06/18 02:58:44;;;;;;;;;;;19.40;99.90;;;;;;4994800;28;19929;-74
2022/06/18 03:01:12;;;;;;;;;;;19.40;99.90;;;;;;4997224;28;19936;-74
2022/06/18 03:03:40;;;;;;;;;;;19.40;99.90;;;;;;5018178;28;19933;-74
2022/06/18 03:06:07;;;;;;;;;;;19.40;99.90;;;;;;5014129;28;19936;-74
2022/06/18 03:08:33;;;;;;;;;;;19.40;99.90;;;;;;4996608;28;19933;-74
2022/06/18 03:13:43;;;;;;;;;;;19.40;99.90;;;;;;5013601;28;20680;-74
2022/06/18 03:16:10;;;;;;;;;;;19.50;99.90;;;;;;4979069;28;19981;-74
2022/06/18 03:18:37;;;;;;;;;;;19.40;99.90;;;;;;5012174;28;20547;-74
2022/06/18 03:21:05;;;;;;;;;;;19.40;99.90;;;;;;5016497;28;20364;-74
2022/06/18 03:23:31;;;;;;;;;;;19.50;99.90;;;;;;5014149;28;19983;-74
2022/06/18 03:25:57;;;;;;;;;;;19.50;99.90;;;;;;5014438;28;19928;-74
2022/06/18 03:28:24;;;;;;;;;;;19.40;99.90;;;;;;5012070;28;19932;-74
2022/06/18 03:30:50;;;;;;;;;;;19.40;99.90;;;;;;4996518;28;19939;-74
2022/06/18 03:33:16;;;;;;;;;;;19.40;99.90;;;;;;5013445;28;19933;-74
2022/06/18 03:35:43;;;;;;;;;;;19.40;99.90;;;;;;5012038;28;19933;-74
2022/06/18 03:38:09;;;;;;;;;;;19.40;99.90;;;;;;5010455;28;19932;-74
2022/06/18 03:40:35;;;;;;;;;;;19.40;99.90;;;;;;4974841;28;19929;-73
2022/06/18 03:43:01;;;;;;;;;;;19.30;99.90;;;;;;5011670;28;19929;-74
2022/06/18 03:45:27;;;;;;;;;;;19.40;99.90;;;;;;5009659;28;19928;-74
2022/06/18 03:47:53;;;;;;;;;;;19.30;99.90;;;;;;4992382;28;19932;-74
2022/06/18 03:50:19;;;;;;;;;;;19.30;99.90;;;;;;5010788;28;19982;-74
2022/06/18 03:52:45;;;;;;;;;;;19.30;99.90;;;;;;5010073;28;19951;-74
2022/06/18 03:55:15;;;;;;;;;;;19.30;99.90;;;;;;5010904;28;20580;-74
2022/06/18 03:57:40;;;;;;;;;;;19.30;99.90;;;;;;5012061;28;20248;-74
2022/06/18 04:00:07;;;;;;;;;;;19.30;99.90;;;;;;5014736;28;20627;-73
2022/06/18 04:02:33;;;;;;;;;;;19.30;99.90;;;;;;5012324;28;20023;-74
2022/06/18 04:04:59;;;;;;;;;;;19.30;99.90;;;;;;4993949;28;19932;-74
2022/06/18 04:07:25;;;;;;;;;;;19.30;99.90;;;;;;5011316;28;19950;-74
2022/06/18 04:09:52;;;;;;;;;;;19.30;99.90;;;;;;5014065;28;19956;-74
2022/06/18 04:12:18;;;;;;;;;;;19.30;99.90;;;;;;5010683;28;19929;-74
2022/06/18 04:14:44;;;;;;;;;;;19.40;99.90;;;;;;5015713;28;19975;-74
2022/06/18 04:17:13;;;;;;;;;;;19.30;99.90;;;;;;5011793;28;19987;-74
2022/06/18 04:19:39;;;;;;;;;;;19.40;99.90;;;;;;5001508;28;20385;-75
2022/06/18 04:22:05;;;;;;;;;;;19.50;99.90;;;;;;5011558;28;19935;-74
2022/06/18 04:24:30;;;;;;;;;;;19.50;99.90;;;;;;4991848;28;20769;-74
2022/06/18 04:26:56;;;;;;;;;;;19.60;99.90;;;;;;4996291;28;19933;-73
2022/06/18 04:29:22;;;;;;;;;;;19.60;99.90;;;;;;5009495;28;19932;-74
2022/06/18 04:31:47;;;;;;;;;;;19.70;99.90;;;;;;5012363;28;20353;-74
2022/06/18 04:34:13;;;;;;;;;;;19.80;99.90;;;;;;5012545;28;20503;-74
2022/06/18 04:36:40;;;;;;;;;;;19.90;99.90;;;;;;5013306;28;19941;-74
2022/06/18 04:39:06;;;;;;;;;;;20.00;99.90;;;;;;5010664;28;20344;-74
2022/06/18 04:41:32;;;;;;;;;;;20.10;99.90;;;;;;4997461;28;19929;-74
2022/06/18 04:43:58;;;;;;;;;;;20.80;99.90;;;;;;5017703;28;19960;-74
2022/06/18 04:46:24;;;;;;;;;;;21.60;99.90;;;;;;4986695;28;19941;-74
2022/06/18 04:48:50;;;;;;;;;;;22.30;99.90;;;;;;5024093;28;19954;-74
2022/06/18 04:51:16;;;;;;;;;;;22.70;99.90;;;;;;4991590;28;20409;-74
2022/06/18 04:53:41;;;;;;;;;;;23.10;99.90;;;;;;5024268;28;20318;-74
2022/06/18 04:56:07;;;;;;;;;;;23.50;99.90;;;;;;5026641;28;20604;-75
2022/06/18 04:58:33;;;;;;;;;;;23.90;99.90;;;;;;5008257;28;19929;-74
2022/06/18 05:00:58;;;;;;;;;;;24.20;99.90;;;;;;5008777;28;19998;-74
2022/06/18 05:03:25;;;;;;;;;;;24.50;99.90;;;;;;5023207;28;20503;-75
2022/06/18 05:05:51;;;;;;;;;;;24.80;99.90;;;;;;5025017;28;19929;-75
2022/06/18 05:08:17;;;;;;;;;;;25.00;99.90;;;;;;5009263;28;19935;-75
2022/06/18 05:10:42;;;;;;;;;;;25.40;99.90;;;;;;5024038;28;19951;-75
2022/06/18 05:13:08;;;;;;;;;;;25.50;99.90;;;;;;5025710;28;20019;-75
2022/06/18 05:15:35;;;;;;;;;;;25.70;99.90;;;;;;5025332;28;20023;-75
2022/06/18 05:18:01;;;;;;;;;;;26.00;99.90;;;;;;5009391;28;19928;-74
2022/06/18 05:20:26;;;;;;;;;;;26.10;99.90;;;;;;5025866;28;19929;-74
2022/06/18 05:22:52;;;;;;;;;;;26.20;99.90;;;;;;5009168;28;20793;-75
2022/06/18 05:25:18;;;;;;;;;;;26.50;99.90;;;;;;5026016;28;20302;-73
2022/06/18 05:27:45;;;;;;;;;;;26.50;99.90;;;;;;5007692;28;19929;-75
2022/06/18 05:30:12;;;;;;;;;;;26.50;99.90;;;;;;5024678;28;19929;-74
2022/06/18 05:32:38;;;;;;;;;;;26.80;99.90;;;;;;5026362;28;19933;-74
2022/06/18 05:35:04;;;;;;;;;;;27.00;99.90;;;;;;5027156;28;19939;-74
2022/06/18 05:37:31;;;;;;;;;;;27.10;99.90;;;;;;5025522;28;19998;-75
2022/06/18 05:39:57;;;;;;;;;;;27.10;99.90;;;;;;5013182;28;19928;-75
2022/06/18 05:42:22;;;;;;;;;;;27.00;99.90;;;;;;5029430;28;19936;-75
2022/06/18 05:44:48;;;;;;;;;;;27.00;99.90;;;;;;5028815;28;20903;-75
2022/06/18 05:47:15;;;;;;;;;;;26.60;99.90;;;;;;5029640;28;20067;-74
2022/06/18 05:49:41;;;;;;;;;;;25.50;99.90;;;;;;5011928;28;19936;-75
2022/06/18 05:52:08;;;;;;;;;;;25.00;99.90;;;;;;5029967;28;19929;-75
2022/06/18 05:54:34;;;;;;;;;;;24.70;99.90;;;;;;5025589;28;19935;-75
2022/06/18 05:57:00;;;;;;;;;;;24.50;99.90;;;;;;5027456;28;21303;-74
2022/06/18 05:59:25;;;;;;;;;;;24.50;99.90;;;;;;5012058;28;20007;-77
2022/06/18 06:01:51;;;;;;;;;;;24.40;99.90;;;;;;5010609;28;19928;-78
2022/06/18 06:04:19;;;;;;;;;;;24.40;99.90;;;;;;5030372;28;20394;-77
2022/06/18 06:06:45;;;;;;;;;;;24.40;99.90;;;;;;5030494;28;19951;-77
2022/06/18 06:11:28;;;;;;;;;;;24.40;99.90;;;;;;5029634;28;20680;-77
2022/06/18 06:11:59;;;;;;;;;;;24.40;99.90;;;;;;5027659;28;19972;-77
2022/06/18 06:14:25;;;;;;;;;;;24.50;99.90;;;;;;5025483;28;20043;-77
2022/06/18 06:16:50;;;;;;;;;;;24.50;99.90;;;;;;5011304;28;20406;-77
2022/06/18 06:19:16;;;;;;;;;;;24.50;99.90;;;;;;5027623;28;19929;-77
2022/06/18 06:21:42;;;;;;;;;;;24.50;99.90;;;;;;5026810;28;19939;-75
2022/06/18 06:24:07;;;;;;;;;;;24.40;99.90;;;;;;5027410;28;19929;-75
2022/06/18 06:26:34;;;;;;;;;;;24.60;99.90;;;;;;5022650;28;19948;-75
2022/06/18 06:29:00;;;;;;;;;;;24.80;99.90;;;;;;5022963;28;20044;-75
2022/06/18 06:31:26;;;;;;;;;;;24.90;99.90;;;;;;5021940;28;19979;-76
2022/06/18 06:33:52;;;;;;;;;;;25.00;99.90;;;;;;5024575;28;20023;-75
2022/06/18 06:36:17;;;;;;;;;;;25.00;99.90;;;;;;5020125;28;20022;-74
2022/06/18 06:38:43;;;;;;;;;;;25.10;99.90;;;;;;5024060;28;19929;-75
2022/06/18 06:41:11;;;;;;;;;;;25.20;99.90;;;;;;5023714;28;19947;-76
2022/06/18 06:43:37;;;;;;;;;;;25.30;99.90;;;;;;5023814;28;19995;-77
2022/06/18 06:46:03;;;;;;;;;;;25.20;99.90;;;;;;5024955;28;19929;-76
2022/06/18 06:48:28;;;;;;;;;;;25.50;99.90;;;;;;4991421;28;20313;-77
2022/06/18 06:50:54;;;;;;;;;;;25.20;99.90;;;;;;5014459;28;19925;-77
2022/06/18 06:53:20;;;;;;;;;;;25.50;99.90;;;;;;5021843;28;19935;-76
2022/06/18 06:58:29;;;;;;;;;;;25.60;99.90;;;;;;5026289;28;20146;-76
2022/06/18 07:00:57;;;;;;;;;;;25.70;99.90;;;;;;5012364;28;20389;-77
2022/06/18 07:03:25;;;;;;;;;;;25.70;99.90;;;;;;5024479;28;19983;-76
2022/06/18 07:05:51;;;;;;;;;;;25.60;99.90;;;;;;5012560;28;20449;-76
2022/06/18 07:08:16;;;;;;;;;;;25.70;99.90;;;;;;5028097;28;19929;-77
2022/06/18 07:10:44;;;;;;;;;;;25.80;99.90;;;;;;5028672;28;20416;-76
2022/06/18 07:13:10;;;;;;;;;;;26.00;99.90;;;;;;5012370;28;19950;-77
2022/06/18 07:15:35;;;;;;;;;;;26.10;99.90;;;;;;5027902;28;19994;-76
2022/06/18 07:18:03;;;;;;;;;;;26.10;99.90;;;;;;5016601;28;20703;-76
2022/06/18 07:20:29;;;;;;;;;;;26.10;99.90;;;;;;5027401;28;19933;-76
2022/06/18 07:22:56;;;;;;;;;;;26.10;99.90;;;;;;5012250;28;19936;-77
2022/06/18 07:25:21;;;;;;;;;;;26.30;99.90;;;;;;5012015;28;19929;-77
2022/06/18 07:27:52;;;;;;;;;;;25.90;99.90;;;;;;5012447;28;19964;-76
2022/06/18 07:30:19;;;;;;;;;;;26.10;99.90;;;;;;5029246;28;19932;-77
2022/06/18 07:32:45;;;;;;;;;;;26.30;99.90;;;;;;5011028;28;19958;-76
2022/06/18 07:35:16;;;;;;;;;;;26.30;99.90;;;;;;5029206;28;20609;-76
2022/06/18 07:37:42;;;;;;;;;;;26.30;99.90;;;;;;5027434;28;20814;-76
2022/06/18 07:40:07;;;;;;;;;;;26.50;99.90;;;;;;5011665;28;19928;-77
2022/06/18 07:42:34;;;;;;;;;;;26.70;99.90;;;;;;5028867;28;19951;-75
2022/06/18 07:45:00;;;;;;;;;;;26.60;99.90;;;;;;5030973;28;19932;-76
2022/06/18 07:47:25;;;;;;;;;;;26.60;99.90;;;;;;5012577;28;19936;-76
2022/06/18 07:49:51;;;;;;;;;;;26.80;99.90;;;;;;5030019;28;19982;-77
2022/06/18 07:52:16;;;;;;;;;;;26.80;99.90;;;;;;5031231;28;20356;-77
2022/06/18 07:54:43;;;;;;;;;;;26.80;99.90;;;;;;5028476;28;19935;-76
2022/06/18 07:57:09;;;;;;;;;;;27.20;99.90;;;;;;5029570;28;19933;-77
2022/06/18 07:59:35;;;;;;;;;;;27.30;99.90;;;;;;5028572;28;19929;-76
2022/06/18 08:02:00;;;;;;;;;;;26.70;99.90;;;;;;5006508;28;19944;-76
2022/06/18 08:04:26;;;;;;;;;;;27.20;99.90;;;;;;5010700;28;19976;-78
2022/06/18 08:06:52;;;;;;;;;;;27.30;99.90;;;;;;5015213;28;19929;-78
2022/06/18 08:09:18;;;;;;;;;;;27.00;99.90;;;;;;5012888;28;20713;-78
2022/06/18 08:11:44;;;;;;;;;;;27.00;99.90;;;;;;4995156;28;20283;-75
2022/06/18 08:14:10;;;;;;;;;;;27.30;99.90;;;;;;4983826;28;19932;-77
2022/06/18 08:16:36;;;;;;;;;;;27.40;99.90;;;;;;5014701;28;19929;-76
2022/06/18 08:19:02;;;;;;;;;;;27.10;99.90;;;;;;5017639;28;19936;-76
2022/06/18 08:21:27;;;;;;;;;;;27.50;99.90;;;;;;5015212;28;20374;-78
2022/06/18 08:23:56;;;;;;;;;;;27.20;99.90;;;;;;5014534;28;19928;-78
2022/06/18 08:26:23;;;;;;;;;;;27.30;99.90;;;;;;5018165;28;19940;-77
2022/06/18 08:28:49;;;;;;;;;;;27.40;99.90;;;;;;5000044;28;20215;-77
2022/06/18 08:31:14;;;;;;;;;;;27.50;99.90;;;;;;5000173;28;19929;-76
2022/06/18 08:33:40;;;;;;;;;;;27.60;99.90;;;;;;5013088;28;20011;-77
2022/06/18 08:36:09;;;;;;;;;;;27.30;99.90;;;;;;5015435;28;19925;-78
2022/06/18 08:38:34;;;;;;;;;;;27.50;99.90;;;;;;4998050;28;19929;-75
2022/06/18 08:41:00;;;;;;;;;;;27.60;99.90;;;;;;5015084;28;19928;-75
2022/06/18 08:43:44;;;;;;;;;;;27.90;99.90;;;;;;5018327;28;20019;-77
2022/06/18 08:46:11;;;;;;;;;;;28.10;99.90;;;;;;5025018;28;20023;-76
2022/06/18 08:48:36;;;;;;;;;;;28.00;99.90;;;;;;5025607;28;19932;-77
2022/06/18 08:51:15;;;;;;;;;;;28.10;99.90;;;;;;5020868;28;19995;-76
2022/06/18 08:54:03;;;;;;;;;;;27.80;99.90;;;;;;5015586;28;19936;-77
2022/06/18 08:56:29;;;;;;;;;;;28.00;99.90;;;;;;4994830;28;19944;-78
2022/06/18 08:58:58;;;;;;;;;;;27.60;99.90;;;;;;5017022;28;20389;-76
2022/06/18 09:01:37;;;;;;;;;;;27.20;99.90;;;;;;5011258;28;19933;-76
2022/06/18 09:04:15;;;;;;;;;;;27.90;99.90;;;;;;4997618;28;19936;-76
2022/06/18 09:06:59;;;;;;;;;;;28.10;99.90;;;;;;5011541;28;19939;-75
2022/06/18 09:09:37;;;;;;;;;;;28.20;99.90;;;;;;5004957;28;19939;-78
2022/06/18 09:12:15;;;;;;;;;;;28.30;99.90;;;;;;5003294;28;19935;-76
2022/06/18 09:14:50;;;;;;;;;;;28.40;99.90;;;;;;5020252;28;19942;-76
2022/06/18 09:17:16;;;;;;;;;;;28.50;99.90;;;;;;5023043;28;19932;-77
2022/06/18 09:19:43;;;;;;;;;;;28.70;99.90;;;;;;5021797;28;19954;-76
2022/06/18 09:22:15;;;;;;;;;;;28.70;99.90;;;;;;5005976;28;19994;-77
2022/06/18 09:24:42;;;;;;;;;;;29.00;99.90;;;;;;4991342;28;19929;-77
2022/06/18 09:27:14;;;;;;;;;;;28.70;99.90;;;;;;5002801;28;19935;-76
2022/06/18 09:29:40;;;;;;;;;;;28.30;99.90;;;;;;5013954;28;19964;-77
2022/06/18 09:32:07;;;;;;;;;;;28.80;99.90;;;;;;5016395;28;19940;-78
2022/06/18 09:34:37;;;;;;;;;;;28.90;99.90;;;;;;5017841;28;19929;-76
2022/06/18 09:37:09;;;;;;;;;;;28.80;99.90;;;;;;5015851;28;19939;-76
2022/06/18 09:39:39;;;;;;;;;;;29.10;99.90;;;;;;5016623;28;20572;-78
2022/06/18 09:42:08;;;;;;;;;;;29.40;99.90;;;;;;5017634;28;19990;-77
2022/06/18 09:44:41;;;;;;;;;;;29.40;99.90;;;;;;4999607;28;20404;-78
2022/06/18 09:47:10;;;;;;;;;;;29.30;99.90;;;;;;5015987;28;20011;-76
2022/06/18 09:49:36;;;;;;;;;;;29.20;99.90;;;;;;5017339;28;19932;-78
2022/06/18 09:52:11;;;;;;;;;;;29.50;99.90;;;;;;5014575;28;20573;-76
2022/06/18 09:54:49;;;;;;;;;;;29.40;99.90;;;;;;5015154;28;19929;-80
2022/06/18 09:57:17;;;;;;;;;;;29.60;99.90;;;;;;5014379;28;20286;-78
2022/06/18 09:59:44;;;;;;;;;;;29.80;99.90;;;;;;5015773;28;19940;-76
2022/06/18 10:02:30;;;;;;;;;;;29.60;99.90;;;;;;4999251;28;19929;-76
2022/06/18 10:07:42;;;;;;;;;;;28.70;99.90;;;;;;5010186;28;19928;-77
2022/06/18 10:10:14;;;;;;;;;;;29.30;99.90;;;;;;4994562;28;20353;-77
2022/06/18 10:12:44;;;;;;;;;;;29.20;99.90;;;;;;5015727;28;19929;-78
2022/06/18 10:15:10;;;;;;;;;;;29.80;99.90;;;;;;4998890;28;20408;-77
2022/06/18 10:17:36;;;;;;;;;;;29.40;99.90;;;;;;5000558;28;19928;-78
2022/06/18 10:20:07;;;;;;;;;;;29.70;99.90;;;;;;5011137;28;19936;-79
2022/06/18 10:22:42;;;;;;;;;;;29.40;99.90;;;;;;5028878;28;20582;-78
2022/06/18 10:25:27;;;;;;;;;;;29.70;99.90;;;;;;5010942;28;19991;-76
2022/06/18 10:28:03;;;;;;;;;;;30.00;99.90;;;;;;5029612;28;19939;-78
2022/06/18 10:30:32;;;;;;;;;;;29.20;99.90;;;;;;5008922;28;19935;-79
2022/06/18 10:33:33;;;;;;;;;;;29.60;99.90;;;;;;5026387;28;19929;-77
2022/06/18 10:36:07;;;;;;;;;;;29.90;99.90;;;;;;4885472;28;20542;-79
2022/06/18 10:38:51;;;;;;;;;;;29.40;99.90;;;;;;5003922;28;20041;-77
2022/06/18 10:41:23;;;;;;;;;;;28.90;99.90;;;;;;5024436;28;20015;-77
2022/06/18 10:43:57;;;;;;;;;;;29.10;99.90;;;;;;5018790;28;19980;-77
2022/06/18 10:46:23;;;;;;;;;;;29.40;99.90;;;;;;4999399;28;19935;-78
2022/06/18 10:48:56;;;;;;;;;;;29.50;99.90;;;;;;4973815;28;19933;-78
2022/06/18 10:51:24;;;;;;;;;;;29.90;99.90;;;;;;5024571;28;20234;-76
2022/06/18 10:53:54;;;;;;;;;;;29.90;99.90;;;;;;5018389;28;19932;-77
2022/06/18 10:56:26;;;;;;;;;;;30.20;99.90;;;;;;5021613;28;19940;-78
2022/06/18 10:58:54;;;;;;;;;;;30.20;99.90;;;;;;5029076;28;19939;-76
2022/06/18 11:01:39;;;;;;;;;;;30.20;99.90;;;;;;5012347;28;19928;-78
2022/06/18 11:04:18;;;;;;;;;;;30.20;99.90;;;;;;5015602;28;20027;-78
2022/06/18 11:06:44;;;;;;;;;;;30.00;99.90;;;;;;5026117;28;19932;-79
2022/06/18 11:09:19;;;;;;;;;;;30.20;99.90;;;;;;5008501;28;19933;-79
2022/06/18 11:11:51;;;;;;;;;;;30.60;99.90;;;;;;5025619;28;19990;-78
2022/06/18 11:14:18;;;;;;;;;;;30.40;99.90;;;;;;4992218;28;20027;-77
2022/06/18 11:16:45;;;;;;;;;;;30.60;99.90;;;;;;5017899;28;19929;-79
2022/06/18 11:19:25;;;;;;;;;;;30.80;99.90;;;;;;5014852;28;19949;-77
2022/06/18 11:21:52;;;;;;;;;;;30.90;99.90;;;;;;5023611;28;20063;-77
2022/06/18 11:24:23;;;;;;;;;;;30.90;99.90;;;;;;5021792;28;19940;-79
2022/06/18 11:26:48;;;;;;;;;;;31.10;99.90;;;;;;5019090;28;20359;-78
2022/06/18 11:29:35;;;;;;;;;;;30.90;99.90;;;;;;5017670;28;20463;-77
2022/06/18 11:32:06;;;;;;;;;;;30.90;99.90;;;;;;5023539;28;20039;-77
2022/06/18 11:34:51;;;;;;;;;;;30.90;99.90;;;;;;5021475;28;19925;-77
2022/06/18 11:37:19;;;;;;;;;;;31.10;99.90;;;;;;5009531;28;21034;-78
2022/06/18 11:39:51;;;;;;;;;;;31.00;99.90;;;;;;5023592;28;20318;-79
2022/06/18 11:42:19;;;;;;;;;;;31.30;99.90;;;;;;5022244;28;20031;-78
2022/06/18 11:45:01;;;;;;;;;;;30.40;99.90;;;;;;5021750;28;19976;-78
2022/06/18 11:47:29;;;;;;;;;;;31.30;99.90;;;;;;5007900;28;19975;-77
2022/06/18 11:50:01;;;;;;;;;;;31.20;99.90;;;;;;5018881;28;19929;-80
2022/06/18 11:52:31;;;;;;;;;;;31.40;99.90;;;;;;5011043;28;20545;-78
2022/06/18 11:55:21;;;;;;;;;;;30.80;99.90;;;;;;5015735;28;19929;-77
2022/06/18 11:57:55;;;;;;;;;;;30.90;99.90;;;;;;5018822;28;20573;-78
2022/06/18 12:00:23;;;;;;;;;;;30.90;99.90;;;;;;5021260;28;19935;-77
2022/06/18 12:02:57;;;;;;;;;;;31.30;99.90;;;;;;4987750;28;19960;-78
2022/06/18 12:05:27;;;;;;;;;;;31.50;99.90;;;;;;5021684;28;19935;-76
2022/06/18 12:07:54;;;;;;;;;;;31.50;99.90;;;;;;5019110;28;20378;-77
2022/06/18 12:10:23;;;;;;;;;;;31.20;99.90;;;;;;5022683;28;19991;-78
2022/06/18 12:12:58;;;;;;;;;;;31.20;99.90;;;;;;5003062;28;19937;-77
2022/06/18 12:15:30;;;;;;;;;;;30.90;99.90;;;;;;4995761;28;19929;-76
2022/06/18 12:18:14;;;;;;;;;;;30.70;99.90;;;;;;5020831;28;20040;-77
2022/06/18 12:21:03;;;;;;;;;;;31.00;99.90;;;;;;5019415;28;21296;-79
2022/06/18 12:23:44;;;;;;;;;;;30.30;99.90;;;;;;5010518;28;19932;-78
2022/06/18 12:26:18;;;;;;;;;;;30.60;99.90;;;;;;5025651;28;19925;-77
2022/06/18 12:28:49;;;;;;;;;;;30.70;99.90;;;;;;5022997;28;20048;-77
2022/06/18 12:31:38;;;;;;;;;;;30.60;99.90;;;;;;5022594;28;19928;-77
2022/06/18 12:34:10;;;;;;;;;;;30.20;99.90;;;;;;5025003;28;20003;-78
2022/06/18 12:36:43;;;;;;;;;;;29.90;99.90;;;;;;5026060;28;19998;-80
2022/06/18 12:39:21;;;;;;;;;;;29.40;99.90;;;;;;5023285;28;19936;-77
2022/06/18 12:41:46;;;;;;;;;;;30.00;99.90;;;;;;5015514;28;19964;-78
2022/06/18 12:44:25;;;;;;;;;;;30.20;99.90;;;;;;5025137;28;20020;-76
2022/06/18 12:47:14;;;;;;;;;;;30.40;99.90;;;;;;5025743;28;19925;-77
2022/06/18 12:49:48;;;;;;;;;;;30.70;99.90;;;;;;5030452;28;19999;-78
2022/06/18 12:52:13;;;;;;;;;;;30.50;99.90;;;;;;5010024;28;19940;-79
2022/06/18 12:54:51;;;;;;;;;;;30.70;99.90;;;;;;5010073;28;19960;-79
2022/06/18 12:57:17;;;;;;;;;;;30.60;99.90;;;;;;5033174;28;19951;-79
2022/06/18 13:00:03;;;;;;;;;;;29.80;99.90;;;;;;5015262;28;19933;-79
2022/06/18 13:02:41;;;;;;;;;;;29.00;99.90;;;;;;5032429;28;19932;-77
2022/06/18 13:05:25;;;;;;;;;;;29.40;99.90;;;;;;5034233;28;20014;-77
2022/06/18 13:07:58;;;;;;;;;;;29.70;99.90;;;;;;5034918;28;19936;-78
2022/06/18 13:10:29;;;;;;;;;;;29.30;99.90;;;;;;5034616;28;19992;-79
2022/06/18 13:12:58;;;;;;;;;;;28.90;99.90;;;;;;5034508;28;19971;-79
2022/06/18 13:15:37;;;;;;;;;;;29.10;99.90;;;;;;5030236;28;19990;-79
2022/06/18 13:18:15;;;;;;;;;;;29.40;99.90;;;;;;5030808;28;20412;-79
2022/06/18 13:20:42;;;;;;;;;;;29.90;99.90;;;;;;5031832;28;20484;-77
2022/06/18 13:28:42;;;;;;;;;;;29.40;99.90;;;;;;5033928;28;19933;-78
2022/06/18 13:31:32;;;;;;;;;;;29.20;99.90;;;;;;5032752;28;20011;-78
2022/06/18 13:34:06;;;;;;;;;;;29.20;99.90;;;;;;5005372;28;19937;-78
2022/06/18 13:36:40;;;;;;;;;;;29.40;99.90;;;;;;5032549;28;20042;-79
2022/06/18 13:39:16;;;;;;;;;;;29.20;99.90;;;;;;5013347;28;19928;-77
2022/06/18 13:41:58;;;;;;;;;;;29.00;99.90;;;;;;5031782;28;19928;-78
2022/06/18 13:44:25;;;;;;;;;;;29.20;99.90;;;;;;5033172;28;19928;-77
2022/06/18 13:47:00;;;;;;;;;;;29.20;99.90;;;;;;5032413;28;20171;-78
2022/06/18 13:49:29;;;;;;;;;;;29.40;99.90;;;;;;5031391;28;19936;-77
2022/06/18 13:51:56;;;;;;;;;;;29.80;99.90;;;;;;5031056;28;20067;-77
2022/06/18 13:54:21;;;;;;;;;;;29.70;99.90;;;;;;5033880;28;19928;-78
2022/06/18 13:57:01;;;;;;;;;;;29.10;99.90;;;;;;5031233;28;19935;-78
2022/06/18 13:59:27;;;;;;;;;;;29.30;99.90;;;;;;5031782;28;19928;-79
2022/06/18 14:01:55;;;;;;;;;;;28.80;99.90;;;;;;5027378;28;19976;-77
2022/06/18 14:04:24;;;;;;;;;;;29.30;99.90;;;;;;5029943;28;19929;-78
2022/06/18 14:06:52;;;;;;;;;;;28.90;99.90;;;;;;5030337;28;20169;-80
2022/06/18 14:09:53;;;;;;;;;;;29.20;99.90;;;;;;5033897;28;19935;-78
2022/06/18 14:12:27;;;;;;;;;;;29.00;99.90;;;;;;4937813;28;19978;-77
2022/06/18 14:15:11;;;;;;;;;;;28.80;99.90;;;;;;5015433;28;19929;-79
2022/06/18 14:17:38;;;;;;;;;;;29.20;99.90;;;;;;5013446;28;19936;-78
2022/06/18 14:20:04;;;;;;;;;;;28.40;99.90;;;;;;5033569;28;19933;-81
2022/06/18 14:22:30;;;;;;;;;;;28.30;99.90;;;;;;5032691;28;19936;-78
2022/06/18 14:25:00;;;;;;;;;;;28.50;99.90;;;;;;5015661;28;19928;-79
2022/06/18 14:27:28;;;;;;;;;;;28.50;99.90;;;;;;5027058;28;19929;-78
2022/06/18 14:29:55;;;;;;;;;;;28.40;99.90;;;;;;5002766;28;19978;-78
2022/06/18 14:32:20;;;;;;;;;;;28.50;99.90;;;;;;5030170;28;19940;-78
2022/06/18 14:35:05;;;;;;;;;;;29.10;99.90;;;;;;5027798;28;19925;-78
2022/06/18 14:37:37;;;;;;;;;;;28.60;99.90;;;;;;5031185;28;20015;-79
2022/06/18 14:40:04;;;;;;;;;;;28.60;99.90;;;;;;5029270;28;19925;-78
2022/06/18 14:42:35;;;;;;;;;;;28.90;99.90;;;;;;5032280;28;20074;-79
2022/06/18 14:45:04;;;;;;;;;;;28.80;99.90;;;;;;5032227;28;20085;-78
2022/06/18 14:47:48;;;;;;;;;;;28.40;99.90;;;;;;5031218;28;20689;-77
2022/06/18 14:50:14;;;;;;;;;;;28.10;99.90;;;;;;5016330;28;19936;-77